createdAt,value
2018-04-19T00:01:19.170Z,0.00
2018-04-19T00:02:19.044Z,0.00
2018-04-19T00:03:19.046Z,0.00
2018-04-19T00:04:22.030Z,0.00
2018-04-19T00:05:58.839Z,0.00
2018-04-19T00:06:58.911Z,0.00
2018-04-19T00:07:58.912Z,0.00
2018-04-19T00:08:58.942Z,0.00
2018-04-19T00:09:58.924Z,0.00
2018-04-19T00:10:58.897Z,0.00
2018-04-19T00:11:58.893Z,0.00
2018-04-19T00:12:58.866Z,0.00
2018-04-19T00:13:58.854Z,0.00
2018-04-19T00:14:58.948Z,0.00
2018-04-19T00:15:58.931Z,0.00
2018-04-19T00:16:58.897Z,0.00
2018-04-19T00:17:59.134Z,270.00
2018-04-19T00:18:58.909Z,294.00
2018-04-19T00:19:58.892Z,36.00
2018-04-19T00:20:58.891Z,45.00
2018-04-19T00:21:58.922Z,45.00
2018-04-19T00:22:58.910Z,45.00
2018-04-19T00:23:58.901Z,45.00
2018-04-19T00:24:58.879Z,45.00
2018-04-19T00:25:58.853Z,45.00
2018-04-19T00:26:58.938Z,45.00
2018-04-19T00:27:58.938Z,45.00
2018-04-19T00:28:58.909Z,45.00
2018-04-19T00:29:58.893Z,0.00
2018-04-19T00:30:58.922Z,0.00
2018-04-19T00:31:58.912Z,0.00
2018-04-19T00:32:58.882Z,0.00
2018-04-19T00:33:58.862Z,0.00
2018-04-19T00:35:02.071Z,0.00
2018-04-19T00:36:02.012Z,0.00
2018-04-19T00:37:01.892Z,0.00
2018-04-19T00:37:58.886Z,0.00
2018-04-19T00:39:01.954Z,0.00
2018-04-19T00:40:01.936Z,0.00
2018-04-19T00:41:01.918Z,0.00
2018-04-19T00:42:29.649Z,0.00
2018-04-19T00:43:00.768Z,0.00
2018-04-19T00:44:00.768Z,0.00
2018-04-19T00:45:03.783Z,0.00
2018-04-19T00:46:22.565Z,0.00
2018-04-19T00:46:59.618Z,0.00
2018-04-19T00:47:59.614Z,317.00
2018-04-19T00:48:59.622Z,290.00
2018-04-19T00:49:59.615Z,356.00
2018-04-19T00:50:59.603Z,305.00
2018-04-19T00:52:02.788Z,283.00
2018-04-19T00:53:02.817Z,283.00
2018-04-19T00:53:59.669Z,294.00
2018-04-19T00:54:59.659Z,301.00
2018-04-19T00:55:59.654Z,293.00
2018-04-19T00:56:59.686Z,302.00
2018-04-19T00:57:59.685Z,310.00
2018-04-19T00:58:59.675Z,294.00
2018-04-19T00:59:59.658Z,301.00
2018-04-19T01:00:59.634Z,332.00
2018-04-19T01:01:59.606Z,320.00
2018-04-19T01:02:59.863Z,306.00
2018-04-19T01:03:59.643Z,307.00
2018-04-19T01:04:57.325Z,67.00
2018-04-19T01:06:21.408Z,289.00
2018-04-19T01:07:02.844Z,292.00
2018-04-19T01:07:59.622Z,322.00
2018-04-19T01:08:59.597Z,303.00
2018-04-19T01:09:59.687Z,287.00
2018-04-19T01:10:59.677Z,331.00
2018-04-19T01:11:59.656Z,302.00
2018-04-19T01:12:59.790Z,303.00
2018-04-19T01:13:59.838Z,309.00
2018-04-19T01:14:59.624Z,305.00
2018-04-19T01:15:59.639Z,293.00
2018-04-19T01:16:59.632Z,332.00
2018-04-19T01:17:59.623Z,304.00
2018-04-19T01:18:59.698Z,280.00
2018-04-19T01:19:59.681Z,303.00
2018-04-19T01:20:59.654Z,318.00
2018-04-19T01:21:59.894Z,261.00
2018-04-19T01:22:59.677Z,295.00
2018-04-19T01:23:59.662Z,331.00
2018-04-19T01:24:59.639Z,300.00
2018-04-19T01:25:59.634Z,293.00
2018-04-19T01:26:59.621Z,306.00
2018-04-19T01:27:59.695Z,302.00
2018-04-19T01:28:59.679Z,277.00
2018-04-19T01:29:59.650Z,310.00
2018-04-19T01:30:59.646Z,335.00
2018-04-19T01:31:59.777Z,290.00
2018-04-19T01:32:59.651Z,295.00
2018-04-19T01:33:59.650Z,318.00
2018-04-19T01:34:59.640Z,281.00
2018-04-19T01:35:59.609Z,291.00
2018-04-19T01:37:35.636Z,299.00
2018-04-19T01:38:35.513Z,309.00
2018-04-19T01:39:35.515Z,311.00
2018-04-19T01:40:35.494Z,322.00
2018-04-19T01:41:35.482Z,42.00
2018-04-19T01:42:35.659Z,316.00
2018-04-19T01:43:35.683Z,313.00
2018-04-19T01:44:35.563Z,135.00
2018-04-19T01:45:38.703Z,37.00
2018-04-19T01:46:35.483Z,351.00
2018-04-19T01:47:35.614Z,292.00
2018-04-19T01:48:35.485Z,66.00
2018-04-19T01:49:35.650Z,345.00
2018-04-19T01:50:35.625Z,345.00
2018-04-19T01:51:35.535Z,326.00
2018-04-19T01:52:35.509Z,304.00
2018-04-19T01:53:35.559Z,297.00
2018-04-19T01:54:35.528Z,300.00
2018-04-19T01:55:35.528Z,23.00
2018-04-19T01:56:35.651Z,303.00
2018-04-19T01:57:35.542Z,42.00
2018-04-19T01:58:35.646Z,315.00
2018-04-19T01:59:35.545Z,332.00
2018-04-19T02:00:35.513Z,333.00
2018-04-19T02:01:35.502Z,350.00
2018-04-19T02:02:38.478Z,321.00
2018-04-19T02:03:35.560Z,306.00
2018-04-19T02:04:35.551Z,334.00
2018-04-19T02:05:35.650Z,342.00
2018-04-19T02:06:35.538Z,299.00
2018-04-19T02:07:35.527Z,337.00
2018-04-19T02:08:35.517Z,310.00
2018-04-19T02:09:35.500Z,254.00
2018-04-19T02:10:35.689Z,180.00
2018-04-19T02:11:38.570Z,262.00
2018-04-19T02:12:38.709Z,318.00
2018-04-19T02:13:35.479Z,225.00
2018-04-19T02:14:35.568Z,180.00
2018-04-19T02:15:35.660Z,180.00
2018-04-19T02:16:35.569Z,337.00
2018-04-19T02:17:35.547Z,337.00
2018-04-19T02:18:35.529Z,337.00
2018-04-19T02:19:35.504Z,315.00
2018-04-19T02:20:35.506Z,280.00
2018-04-19T02:21:37.360Z,325.00
2018-04-19T02:22:35.543Z,315.00
2018-04-19T02:23:35.651Z,270.00
2018-04-19T02:24:35.553Z,180.00
2018-04-19T02:25:35.539Z,135.00
2018-04-19T02:26:35.602Z,135.00
2018-04-19T02:27:35.674Z,0.00
2018-04-19T02:28:35.563Z,0.00
2018-04-19T02:29:35.566Z,0.00
2018-04-19T02:30:35.535Z,0.00
2018-04-19T02:31:38.503Z,0.00
2018-04-19T02:32:35.584Z,0.00
2018-04-19T02:33:38.578Z,337.00
2018-04-19T02:34:38.657Z,337.00
2018-04-19T02:35:35.686Z,270.00
2018-04-19T02:36:36.762Z,270.00
2018-04-19T02:37:35.558Z,0.00
2018-04-19T02:38:35.638Z,0.00
2018-04-19T02:39:57.087Z,0.00
2018-04-19T02:40:35.581Z,0.00
2018-04-19T02:41:35.698Z,0.00
2018-04-19T02:42:35.802Z,0.00
2018-04-19T02:43:35.587Z,0.00
2018-04-19T02:44:35.578Z,0.00
2018-04-19T02:45:35.681Z,0.00
2018-04-19T02:46:35.835Z,0.00
2018-04-19T02:47:35.530Z,0.00
2018-04-19T02:48:35.681Z,0.00
2018-04-19T02:49:35.563Z,0.00
2018-04-19T02:50:35.564Z,0.00
2018-04-19T02:51:35.539Z,0.00
2018-04-19T02:52:35.528Z,0.00
2018-04-19T02:53:35.641Z,0.00
2018-04-19T02:54:35.570Z,0.00
2018-04-19T02:55:35.558Z,127.00
2018-04-19T02:56:35.563Z,135.00
2018-04-19T02:57:35.534Z,135.00
2018-04-19T02:58:38.660Z,0.00
2018-04-19T03:00:06.409Z,0.00
2018-04-19T03:00:37.311Z,0.00
2018-04-19T03:01:37.426Z,135.00
2018-04-19T03:02:37.328Z,135.00
2018-04-19T03:03:37.330Z,0.00
2018-04-19T03:04:37.366Z,157.00
2018-04-19T03:05:37.286Z,157.00
2018-04-19T03:06:37.324Z,0.00
2018-04-19T03:07:58.939Z,0.00
2018-04-19T03:08:36.211Z,0.00
2018-04-19T03:09:36.206Z,336.00
2018-04-19T03:10:36.183Z,337.00
2018-04-19T03:11:36.305Z,0.00
2018-04-19T03:12:36.202Z,0.00
2018-04-19T03:13:36.206Z,0.00
2018-04-19T03:14:36.202Z,0.00
2018-04-19T03:15:36.214Z,337.00
2018-04-19T03:16:46.720Z,337.00
2018-04-19T03:17:37.371Z,0.00
2018-04-19T03:18:37.427Z,0.00
2018-04-19T03:19:37.321Z,0.00
2018-04-19T03:20:58.874Z,0.00
2018-04-19T03:21:36.290Z,0.00
2018-04-19T03:22:36.173Z,0.00
2018-04-19T03:23:36.267Z,0.00
2018-04-19T03:24:36.234Z,0.00
2018-04-19T03:25:36.218Z,0.00
2018-04-19T03:26:36.207Z,89.00
2018-04-19T03:27:36.198Z,0.00
2018-04-19T03:28:36.269Z,0.00
2018-04-19T03:29:36.245Z,0.00
2018-04-19T03:30:36.231Z,0.00
2018-04-19T03:31:36.235Z,0.00
2018-04-19T03:32:36.234Z,0.00
2018-04-19T03:33:36.212Z,0.00
2018-04-19T03:34:36.191Z,0.00
2018-04-19T03:35:36.277Z,0.00
2018-04-19T03:36:35.235Z,0.00
2018-04-19T03:37:36.201Z,67.00
2018-04-19T03:38:36.268Z,45.00
2018-04-19T03:39:36.263Z,0.00
2018-04-19T03:40:36.238Z,0.00
2018-04-19T03:41:36.227Z,135.00
2018-04-19T03:42:36.194Z,0.00
2018-04-19T03:43:36.266Z,0.00
2018-04-19T03:44:36.359Z,0.00
2018-04-19T03:45:36.238Z,0.00
2018-04-19T03:46:36.234Z,0.00
2018-04-19T03:47:36.216Z,0.00
2018-04-19T03:48:36.274Z,0.00
2018-04-19T03:49:36.255Z,0.00
2018-04-19T03:50:36.243Z,0.00
2018-04-19T03:51:36.209Z,0.00
2018-04-19T03:52:36.291Z,0.00
2018-04-19T03:53:36.383Z,0.00
2018-04-19T03:54:36.263Z,0.00
2018-04-19T03:55:36.263Z,0.00
2018-04-19T03:56:36.259Z,0.00
2018-04-19T03:57:36.240Z,0.00
2018-04-19T03:58:36.227Z,0.00
2018-04-19T03:59:36.235Z,0.00
2018-04-19T04:00:36.235Z,0.00
2018-04-19T04:01:39.386Z,0.00
2018-04-19T04:02:36.426Z,0.00
2018-04-19T04:03:39.284Z,0.00
2018-04-19T04:04:39.304Z,0.00
2018-04-19T04:05:39.392Z,0.00
2018-04-19T04:06:36.283Z,0.00
2018-04-19T04:07:36.283Z,0.00
2018-04-19T04:08:36.264Z,0.00
2018-04-19T04:09:36.241Z,0.00
2018-04-19T04:10:36.231Z,0.00
2018-04-19T04:11:36.208Z,0.00
2018-04-19T04:12:36.287Z,0.00
2018-04-19T04:13:36.257Z,0.00
2018-04-19T04:14:36.246Z,0.00
2018-04-19T04:15:39.223Z,0.00
2018-04-19T04:16:36.215Z,0.00
2018-04-19T04:17:36.301Z,0.00
2018-04-19T04:18:36.274Z,0.00
2018-04-19T04:19:36.254Z,0.00
2018-04-19T04:20:36.238Z,0.00
2018-04-19T04:21:36.209Z,0.00
2018-04-19T04:22:39.348Z,287.00
2018-04-19T04:23:36.273Z,271.00
2018-04-19T04:24:36.265Z,292.00
2018-04-19T04:25:39.049Z,292.00
2018-04-19T04:26:36.509Z,292.00
2018-04-19T04:27:36.316Z,0.00
2018-04-19T04:28:36.310Z,0.00
2018-04-19T04:29:36.295Z,0.00
2018-04-19T04:30:36.347Z,0.00
2018-04-19T04:31:36.228Z,0.00
2018-04-19T04:32:36.303Z,0.00
2018-04-19T04:33:36.323Z,0.00
2018-04-19T04:34:41.279Z,0.00
2018-04-19T04:35:36.507Z,0.00
2018-04-19T04:36:34.545Z,0.00
2018-04-19T04:37:47.169Z,0.00
2018-04-19T04:38:37.352Z,0.00
2018-04-19T04:40:50.279Z,89.00
2018-04-19T04:41:50.328Z,89.00
2018-04-19T04:42:50.236Z,135.00
2018-04-19T04:43:50.254Z,99.00
2018-04-19T04:44:50.250Z,131.00
2018-04-19T04:45:50.273Z,135.00
2018-04-19T04:46:50.251Z,0.00
2018-04-19T04:47:50.359Z,91.00
2018-04-19T04:48:50.446Z,92.00
2018-04-19T04:49:50.216Z,92.00
2018-04-19T04:50:50.218Z,89.00
2018-04-19T04:51:50.211Z,123.00
2018-04-19T04:52:50.330Z,105.00
2018-04-19T04:53:50.229Z,122.00
2018-04-19T04:54:50.334Z,135.00
2018-04-19T04:55:50.249Z,135.00
2018-04-19T04:56:50.286Z,89.00
2018-04-19T04:57:50.273Z,100.00
2018-04-19T04:58:50.242Z,0.00
2018-04-19T04:59:50.238Z,35.00
2018-04-19T05:00:50.263Z,337.00
2018-04-19T05:01:50.259Z,280.00
2018-04-19T05:02:50.426Z,180.00
2018-04-19T05:03:50.487Z,337.00
2018-04-19T05:04:50.278Z,236.00
2018-04-19T05:05:50.259Z,327.00
2018-04-19T05:06:50.246Z,77.00
2018-04-19T05:07:50.233Z,178.00
2018-04-19T05:08:50.243Z,332.00
2018-04-19T05:09:50.394Z,143.00
2018-04-19T05:10:50.272Z,213.00
2018-04-19T05:11:50.274Z,324.00
2018-04-19T05:12:50.427Z,60.00
2018-04-19T05:13:50.200Z,24.00
2018-04-19T05:14:50.197Z,342.00
2018-04-19T05:15:50.198Z,336.00
2018-04-19T05:16:50.306Z,343.00
2018-04-19T05:17:50.307Z,275.00
2018-04-19T05:18:50.202Z,24.00
2018-04-19T05:19:50.255Z,307.00
2018-04-19T05:20:50.259Z,138.00
2018-04-19T05:21:50.242Z,59.00
2018-04-19T05:22:50.266Z,340.00
2018-04-19T05:23:50.250Z,45.00
2018-04-19T05:24:50.230Z,45.00
2018-04-19T05:25:50.218Z,279.00
2018-04-19T05:26:50.199Z,315.00
2018-04-19T05:27:50.337Z,48.00
2018-04-19T05:28:50.222Z,312.00
2018-04-19T05:29:50.210Z,290.00
2018-04-19T05:30:50.202Z,171.00
2018-04-19T05:31:50.213Z,359.00
2018-04-19T05:32:53.346Z,35.00
2018-04-19T05:33:50.429Z,328.00
2018-04-19T05:34:50.286Z,354.00
2018-04-19T05:35:54.477Z,148.00
2018-04-19T05:38:07.312Z,340.00
2018-04-19T05:39:07.395Z,103.00
2018-04-19T05:40:10.546Z,139.00
2018-04-19T05:41:07.543Z,16.00
2018-04-19T05:42:07.322Z,59.00
2018-04-19T05:43:07.408Z,68.00
2018-04-19T05:44:07.393Z,131.00
2018-04-19T05:45:07.378Z,127.00
2018-04-19T05:46:07.350Z,72.00
2018-04-19T05:47:07.331Z,82.00
2018-04-19T05:48:07.325Z,7.00
2018-04-19T05:50:20.108Z,308.00
2018-04-19T05:51:20.090Z,136.00
2018-04-19T05:52:20.079Z,51.00
2018-04-19T05:53:20.161Z,64.00
2018-04-19T05:54:20.141Z,38.00
2018-04-19T05:55:20.121Z,16.00
2018-04-19T05:56:23.102Z,49.00
2018-04-19T05:57:20.094Z,46.00
2018-04-19T05:58:20.238Z,61.00
2018-04-19T05:59:20.116Z,83.00
2018-04-19T06:00:20.212Z,19.00
2018-04-19T06:01:20.102Z,308.00
2018-04-19T06:02:23.026Z,116.00
2018-04-19T06:03:23.100Z,120.00
2018-04-19T06:04:23.191Z,120.00
2018-04-19T06:05:20.426Z,134.00
2018-04-19T06:06:20.201Z,135.00
2018-04-19T06:07:20.086Z,125.00
2018-04-19T06:08:20.101Z,86.00
2018-04-19T06:09:24.098Z,116.00
2018-04-19T06:10:21.191Z,127.00
2018-04-19T06:11:21.299Z,86.00
2018-04-19T06:12:21.242Z,140.00
2018-04-19T06:13:21.228Z,330.00
2018-04-19T06:14:21.229Z,336.00
2018-04-19T06:15:21.221Z,329.00
2018-04-19T06:16:21.208Z,331.00
2018-04-19T06:17:21.202Z,308.00
2018-04-19T06:18:42.861Z,352.00
2018-04-19T06:19:20.179Z,332.00
2018-04-19T06:20:20.154Z,335.00
2018-04-19T06:21:20.134Z,334.00
2018-04-19T06:22:23.093Z,209.00
2018-04-19T06:23:20.190Z,180.00
2018-04-19T06:24:20.250Z,0.00
2018-04-19T06:25:20.125Z,89.00
2018-04-19T06:26:20.110Z,45.00
2018-04-19T06:27:20.098Z,74.00
2018-04-19T06:28:20.179Z,114.00
2018-04-19T06:29:20.153Z,75.00
2018-04-19T06:30:20.262Z,74.00
2018-04-19T06:31:20.138Z,54.00
2018-04-19T06:32:20.124Z,100.00
2018-04-19T06:33:20.101Z,112.00
2018-04-19T06:34:23.249Z,147.00
2018-04-19T06:35:30.502Z,351.00
2018-04-19T06:36:21.211Z,0.00
2018-04-19T06:37:21.236Z,45.00
2018-04-19T06:38:21.248Z,180.00
2018-04-19T06:39:21.274Z,38.00
2018-04-19T06:40:21.271Z,96.00
2018-04-19T06:41:21.300Z,295.00
2018-04-19T06:42:43.104Z,111.00
2018-04-19T06:43:20.319Z,32.00
2018-04-19T06:44:20.090Z,44.00
2018-04-19T06:45:20.380Z,81.00
2018-04-19T06:46:20.152Z,78.00
2018-04-19T06:47:20.147Z,86.00
2018-04-19T06:48:20.163Z,102.00
2018-04-19T06:49:19.209Z,107.00
2018-04-19T06:50:41.662Z,80.00
2018-04-19T06:51:23.142Z,111.00
2018-04-19T06:52:23.125Z,105.00
2018-04-19T06:53:20.225Z,86.00
2018-04-19T06:54:55.978Z,92.00
2018-04-19T06:55:56.049Z,100.00
2018-04-19T06:56:56.046Z,92.00
2018-04-19T06:57:56.035Z,23.00
2018-04-19T06:58:56.014Z,12.00
2018-04-19T06:59:55.997Z,3.00
2018-04-19T07:00:55.971Z,37.00
2018-04-19T07:01:56.020Z,24.00
2018-04-19T07:02:56.107Z,47.00
2018-04-19T07:03:55.987Z,37.00
2018-04-19T07:04:56.091Z,30.00
2018-04-19T07:05:55.956Z,103.00
2018-04-19T07:06:56.022Z,139.00
2018-04-19T07:07:56.008Z,95.00
2018-04-19T07:08:55.990Z,99.00
2018-04-19T07:09:56.070Z,91.00
2018-04-19T07:10:56.054Z,76.00
2018-04-19T07:11:56.042Z,16.00
2018-04-19T07:12:56.044Z,108.00
2018-04-19T07:13:56.029Z,50.00
2018-04-19T07:14:56.002Z,340.00
2018-04-19T07:15:56.105Z,154.00
2018-04-19T07:16:55.999Z,130.00
2018-04-19T07:17:55.989Z,88.00
2018-04-19T07:18:56.062Z,51.00
2018-04-19T07:19:56.290Z,116.00
2018-04-19T07:20:55.998Z,127.00
2018-04-19T07:21:56.070Z,125.00
2018-04-19T07:22:56.054Z,24.00
2018-04-19T07:23:56.030Z,254.00
2018-04-19T07:24:56.006Z,349.00
2018-04-19T07:26:33.095Z,357.00
2018-04-19T07:27:33.195Z,345.00
2018-04-19T07:28:33.166Z,340.00
2018-04-19T07:29:33.141Z,330.00
2018-04-19T07:30:36.261Z,337.00
2018-04-19T07:31:36.131Z,344.00
2018-04-19T07:32:33.240Z,315.00
2018-04-19T07:33:33.114Z,139.00
2018-04-19T07:34:33.208Z,106.00
2018-04-19T07:35:33.186Z,111.00
2018-04-19T07:36:33.094Z,87.00
2018-04-19T07:37:33.073Z,98.00
2018-04-19T07:38:33.118Z,108.00
2018-04-19T07:39:33.119Z,97.00
2018-04-19T07:40:33.102Z,99.00
2018-04-19T07:41:33.074Z,109.00
2018-04-19T07:42:33.045Z,91.00
2018-04-19T07:43:33.139Z,107.00
2018-04-19T07:44:33.127Z,119.00
2018-04-19T07:45:36.119Z,96.00
2018-04-19T07:46:33.096Z,110.00
2018-04-19T07:47:36.072Z,51.00
2018-04-19T07:48:33.151Z,56.00
2018-04-19T07:49:33.116Z,77.00
2018-04-19T07:50:33.115Z,354.00
2018-04-19T07:51:33.347Z,120.00
2018-04-19T07:52:33.143Z,138.00
2018-04-19T07:53:33.109Z,135.00
2018-04-19T07:54:33.084Z,106.00
2018-04-19T07:55:33.122Z,112.00
2018-04-19T07:56:33.120Z,108.00
2018-04-19T07:57:33.096Z,116.00
2018-04-19T07:58:33.140Z,111.00
2018-04-19T07:59:33.179Z,50.00
2018-04-19T08:00:33.062Z,104.00
2018-04-19T08:01:33.129Z,147.00
2018-04-19T08:02:33.108Z,74.00
2018-04-19T08:03:33.088Z,70.00
2018-04-19T08:04:33.060Z,91.00
2018-04-19T08:05:36.061Z,91.00
2018-04-19T08:06:33.508Z,79.00
2018-04-19T08:07:33.088Z,66.00
2018-04-19T08:08:33.063Z,345.00
2018-04-19T08:09:33.125Z,59.00
2018-04-19T08:10:33.105Z,83.00
2018-04-19T08:11:33.096Z,101.00
2018-04-19T08:12:33.081Z,99.00
2018-04-19T08:13:33.064Z,87.00
2018-04-19T08:14:33.062Z,73.00
2018-04-19T08:15:33.146Z,44.00
2018-04-19T08:16:33.113Z,85.00
2018-04-19T08:17:33.178Z,102.00
2018-04-19T08:18:33.147Z,39.00
2018-04-19T08:19:33.134Z,105.00
2018-04-19T08:20:33.106Z,73.00
2018-04-19T08:21:33.098Z,56.00
2018-04-19T08:22:33.074Z,101.00
2018-04-19T08:23:33.137Z,86.00
2018-04-19T08:24:33.384Z,78.00
2018-04-19T08:25:32.379Z,6.00
2018-04-19T08:26:33.142Z,60.00
2018-04-19T08:27:33.115Z,127.00
2018-04-19T08:28:54.804Z,24.00
2018-04-19T08:29:33.205Z,84.00
2018-04-19T08:30:33.078Z,77.00
2018-04-19T08:31:36.154Z,115.00
2018-04-19T08:32:36.217Z,110.00
2018-04-19T08:33:33.142Z,104.00
2018-04-19T08:34:36.235Z,98.00
2018-04-19T08:35:33.220Z,78.00
2018-04-19T08:36:33.116Z,321.00
2018-04-19T08:38:03.949Z,41.00
2018-04-19T08:38:35.036Z,348.00
2018-04-19T08:39:35.041Z,122.00
2018-04-19T08:40:56.854Z,67.00
2018-04-19T08:41:33.927Z,54.00
2018-04-19T08:42:34.084Z,115.00
2018-04-19T08:43:33.954Z,82.00
2018-04-19T08:44:34.085Z,298.00
2018-04-19T08:45:34.122Z,257.00
2018-04-19T08:46:33.901Z,89.00
2018-04-19T08:47:34.102Z,128.00
2018-04-19T08:48:33.975Z,172.00
2018-04-19T08:49:34.058Z,100.00
2018-04-19T08:50:34.014Z,105.00
2018-04-19T08:51:33.979Z,87.00
2018-04-19T08:52:34.091Z,43.00
2018-04-19T08:53:34.038Z,39.00
2018-04-19T08:54:34.015Z,96.00
2018-04-19T08:55:34.113Z,95.00
2018-04-19T08:56:36.973Z,35.00
2018-04-19T08:57:37.147Z,36.00
2018-04-19T08:58:37.023Z,106.00
2018-04-19T08:59:34.082Z,320.00
2018-04-19T09:00:37.453Z,107.00
2018-04-19T09:01:33.930Z,130.00
2018-04-19T09:02:33.918Z,67.00
2018-04-19T09:03:34.067Z,105.00
2018-04-19T09:04:33.934Z,95.00
2018-04-19T09:05:33.905Z,55.00
2018-04-19T09:06:34.074Z,81.00
2018-04-19T09:07:33.978Z,46.00
2018-04-19T09:08:33.960Z,113.00
2018-04-19T09:09:34.302Z,116.00
2018-04-19T09:10:33.995Z,135.00
2018-04-19T09:11:33.991Z,85.00
2018-04-19T09:12:34.001Z,104.00
2018-04-19T09:13:34.023Z,51.00
2018-04-19T09:14:34.077Z,318.00
2018-04-19T09:15:36.935Z,89.00
2018-04-19T09:16:34.014Z,100.00
2018-04-19T09:18:39.563Z,84.00
2018-04-19T09:19:34.436Z,158.00
2018-04-19T09:20:44.597Z,140.00
2018-04-19T09:21:35.392Z,316.00
2018-04-19T09:22:35.564Z,28.00
2018-04-19T09:23:35.169Z,344.00
2018-04-19T09:24:35.192Z,102.00
2018-04-19T09:26:13.095Z,86.00
2018-04-19T09:27:13.006Z,97.00
2018-04-19T09:28:13.030Z,178.00
2018-04-19T09:29:13.041Z,0.00
2018-04-19T09:30:13.021Z,141.00
2018-04-19T09:31:12.996Z,69.00
2018-04-19T09:32:13.062Z,63.00
2018-04-19T09:33:13.062Z,19.00
2018-04-19T09:34:13.083Z,296.00
2018-04-19T09:35:13.066Z,330.00
2018-04-19T09:36:16.066Z,99.00
2018-04-19T09:37:16.042Z,124.00
2018-04-19T09:38:13.869Z,144.00
2018-04-19T09:39:17.207Z,148.00
2018-04-19T09:40:16.824Z,133.00
2018-04-19T09:41:16.221Z,90.00
2018-04-19T09:42:13.569Z,120.00
2018-04-19T09:43:13.533Z,116.00
2018-04-19T09:44:13.362Z,80.00
2018-04-19T09:45:13.139Z,58.00
2018-04-19T09:46:16.063Z,108.00
2018-04-19T09:47:13.052Z,170.00
2018-04-19T09:48:16.187Z,132.00
2018-04-19T09:49:13.133Z,172.00
2018-04-19T09:50:13.026Z,132.00
2018-04-19T09:51:13.001Z,130.00
2018-04-19T09:52:12.988Z,90.00
2018-04-19T09:53:13.065Z,132.00
2018-04-19T09:54:13.224Z,59.00
2018-04-19T09:55:13.389Z,118.00
2018-04-19T09:56:13.064Z,107.00
2018-04-19T09:57:13.159Z,162.00
2018-04-19T09:58:13.048Z,145.00
2018-04-19T09:59:13.052Z,140.00
2018-04-19T10:00:13.041Z,97.00
2018-04-19T10:01:13.029Z,112.00
2018-04-19T10:02:13.037Z,124.00
2018-04-19T10:03:13.054Z,124.00
2018-04-19T10:04:13.083Z,86.00
2018-04-19T10:05:13.082Z,107.00
2018-04-19T10:06:13.065Z,129.00
2018-04-19T10:07:13.033Z,135.00
2018-04-19T10:08:12.999Z,139.00
2018-04-19T10:09:13.193Z,137.00
2018-04-19T10:10:13.075Z,146.00
2018-04-19T10:11:13.041Z,140.00
2018-04-19T10:12:13.139Z,148.00
2018-04-19T10:13:13.033Z,121.00
2018-04-19T10:14:13.039Z,139.00
2018-04-19T10:15:14.522Z,142.00
2018-04-19T10:16:13.093Z,105.00
2018-04-19T10:17:13.073Z,111.00
2018-04-19T10:18:13.047Z,107.00
2018-04-19T10:19:13.033Z,155.00
2018-04-19T10:20:13.010Z,127.00
2018-04-19T10:21:13.108Z,143.00
2018-04-19T10:23:21.326Z,119.00
2018-04-19T10:24:13.814Z,123.00
2018-04-19T10:25:12.569Z,122.00
2018-04-19T10:26:16.762Z,144.00
2018-04-19T10:27:13.729Z,137.00
2018-04-19T10:28:13.970Z,121.00
2018-04-19T10:29:13.863Z,139.00
2018-04-19T10:30:13.748Z,144.00
2018-04-19T10:31:13.850Z,128.00
2018-04-19T10:32:13.794Z,86.00
2018-04-19T10:33:14.040Z,104.00
2018-04-19T10:34:13.811Z,86.00
2018-04-19T10:35:13.786Z,133.00
2018-04-19T10:36:13.770Z,146.00
2018-04-19T10:37:13.865Z,129.00
2018-04-19T10:38:13.766Z,123.00
2018-04-19T10:39:13.747Z,117.00
2018-04-19T10:40:13.741Z,120.00
2018-04-19T10:41:16.927Z,142.00
2018-04-19T10:42:13.806Z,141.00
2018-04-19T10:43:16.783Z,101.00
2018-04-19T10:44:13.784Z,148.00
2018-04-19T10:45:13.903Z,133.00
2018-04-19T10:46:13.827Z,130.00
2018-04-19T10:47:13.809Z,155.00
2018-04-19T10:48:13.818Z,163.00
2018-04-19T10:49:13.855Z,109.00
2018-04-19T10:50:16.840Z,81.00
2018-04-19T10:51:13.891Z,140.00
2018-04-19T10:52:13.946Z,152.00
2018-04-19T10:53:16.741Z,153.00
2018-04-19T10:54:16.816Z,151.00
2018-04-19T10:55:16.789Z,83.00
2018-04-19T10:56:13.838Z,179.00
2018-04-19T10:57:16.854Z,161.00
2018-04-19T10:58:13.768Z,111.00
2018-04-19T10:59:13.850Z,92.00
2018-04-19T11:00:13.817Z,92.00
2018-04-19T11:01:13.802Z,90.00
2018-04-19T11:02:13.783Z,146.00
2018-04-19T11:03:13.783Z,140.00
2018-04-19T11:04:50.767Z,128.00
2018-04-19T11:05:51.265Z,137.00
2018-04-19T11:06:50.775Z,88.00
2018-04-19T11:07:50.854Z,102.00
2018-04-19T11:08:50.819Z,98.00
2018-04-19T11:09:50.819Z,119.00
2018-04-19T11:10:50.824Z,86.00
2018-04-19T11:11:50.802Z,82.00
2018-04-19T11:12:50.771Z,113.00
2018-04-19T11:13:50.853Z,98.00
2018-04-19T11:14:50.940Z,121.00
2018-04-19T11:15:50.965Z,111.00
2018-04-19T11:16:50.950Z,117.00
2018-04-19T11:17:50.837Z,123.00
2018-04-19T11:18:50.819Z,146.00
2018-04-19T11:19:50.802Z,128.00
2018-04-19T11:20:50.789Z,143.00
2018-04-19T11:21:50.875Z,133.00
2018-04-19T11:22:52.980Z,145.00
2018-04-19T11:23:50.767Z,146.00
2018-04-19T11:24:50.929Z,127.00
2018-04-19T11:25:50.798Z,107.00
2018-04-19T11:26:50.778Z,130.00
2018-04-19T11:27:50.950Z,133.00
2018-04-19T11:28:50.954Z,183.00
2018-04-19T11:29:50.822Z,179.00
2018-04-19T11:30:50.902Z,177.00
2018-04-19T11:31:50.773Z,164.00
2018-04-19T11:32:53.791Z,145.00
2018-04-19T11:33:51.226Z,116.00
2018-04-19T11:34:50.810Z,105.00
2018-04-19T11:35:50.815Z,115.00
2018-04-19T11:36:50.812Z,37.00
2018-04-19T11:37:50.806Z,125.00
2018-04-19T11:38:50.793Z,135.00
2018-04-19T11:39:50.872Z,91.00
2018-04-19T11:40:50.843Z,341.00
2018-04-19T11:41:50.815Z,326.00
2018-04-19T11:42:50.806Z,208.00
2018-04-19T11:43:50.798Z,224.00
2018-04-19T11:44:50.867Z,317.00
2018-04-19T11:45:50.837Z,327.00
2018-04-19T11:46:51.014Z,257.00
2018-04-19T11:47:50.788Z,325.00
2018-04-19T11:48:50.994Z,311.00
2018-04-19T11:49:50.866Z,170.00
2018-04-19T11:50:50.851Z,154.00
2018-04-19T11:51:50.827Z,172.00
2018-04-19T11:52:50.819Z,288.00
2018-04-19T11:53:50.795Z,337.00
2018-04-19T11:54:50.978Z,340.00
2018-04-19T11:55:50.962Z,327.00
2018-04-19T11:56:50.932Z,303.00
2018-04-19T11:57:50.811Z,286.00
2018-04-19T11:58:50.794Z,278.00
2018-04-19T11:59:50.879Z,199.00
2018-04-19T12:00:50.849Z,166.00
2018-04-19T12:01:50.804Z,94.00
2018-04-19T12:02:50.835Z,94.00
2018-04-19T12:03:50.240Z,108.00
2018-04-19T12:04:50.824Z,149.00
2018-04-19T12:05:50.809Z,130.00
2018-04-19T12:07:12.585Z,160.00
2018-04-19T12:07:50.910Z,135.00
2018-04-19T12:08:50.890Z,121.00
2018-04-19T12:09:50.874Z,168.00
2018-04-19T12:10:50.887Z,126.00
2018-04-19T12:11:50.872Z,112.00
2018-04-19T12:12:50.851Z,353.00
2018-04-19T12:13:53.817Z,305.00
2018-04-19T12:14:50.920Z,186.00
2018-04-19T12:15:51.031Z,191.00
2018-04-19T12:16:50.823Z,165.00
2018-04-19T12:17:50.804Z,134.00
2018-04-19T12:18:51.058Z,160.00
2018-04-19T12:19:50.849Z,147.00
2018-04-19T12:20:50.954Z,149.00
2018-04-19T12:21:50.851Z,149.00
2018-04-19T12:22:50.858Z,139.00
2018-04-19T12:23:50.863Z,180.00
2018-04-19T12:24:50.864Z,183.00
2018-04-19T12:25:50.851Z,178.00
2018-04-19T12:26:50.830Z,315.00
2018-04-19T12:27:50.919Z,302.00
2018-04-19T12:28:51.051Z,348.00
2018-04-19T12:29:50.840Z,32.00
2018-04-19T12:30:50.829Z,182.00
2018-04-19T12:31:50.907Z,325.00
2018-04-19T12:32:50.898Z,292.00
2018-04-19T12:33:50.926Z,343.00
2018-04-19T12:34:50.977Z,293.00
2018-04-19T12:35:50.849Z,292.00
2018-04-19T12:36:50.837Z,292.00
2018-04-19T12:37:50.827Z,295.00
2018-04-19T12:38:50.826Z,292.00
2018-04-19T12:39:50.906Z,292.00
2018-04-19T12:40:51.001Z,292.00
2018-04-19T12:41:50.882Z,292.00
2018-04-19T12:42:50.979Z,297.00
2018-04-19T12:43:50.980Z,292.00
2018-04-19T12:44:50.884Z,292.00
2018-04-19T12:46:28.704Z,294.00
2018-04-19T12:47:28.761Z,296.00
2018-04-19T12:48:28.738Z,292.00
2018-04-19T12:49:28.725Z,292.00
2018-04-19T12:50:28.717Z,292.00
2018-04-19T12:51:28.794Z,0.00
2018-04-19T12:52:28.783Z,292.00
2018-04-19T12:54:05.720Z,0.00
2018-04-19T12:55:08.723Z,0.00